sensor_id;sensor_type;location;lat;lon;timestamp;temperature;humidity
7427;DHT22;3755;59.316;18.092;2022-08-11T00:01:53;18.20;99.90
7427;DHT22;3755;59.316;18.092;2022-08-11T00:04:23;18.20;99.90
7427;DHT22;3755;59.316;18.092;2022-08-11T00:06:51;18.30;99.90
7427;DHT22;3755;59.316;18.092;2022-08-11T00:09:22;18.30;99.90
7427;DHT22;3755;59.316;18.092;2022-08-11T00:11:57;18.40;99.90
7427;DHT22;3755;59.316;18.092;2022-08-11T00:14:27;18.60;99.90
7427;DHT22;3755;59.316;18.092;2022-08-11T00:16:57;18.80;99.90
7427;DHT22;3755;59.316;18.092;2022-08-11T00:19:27;18.90;99.90
7427;DHT22;3755;59.316;18.092;2022-08-11T00:21:55;19.00;99.90
7427;DHT22;3755;59.316;18.092;2022-08-11T00:24:23;19.00;99.90
7427;DHT22;3755;59.316;18.092;2022-08-11T00:26:53;18.90;99.90
7427;DHT22;3755;59.316;18.092;2022-08-11T00:29:21;18.90;99.90
7427;DHT22;3755;59.316;18.092;2022-08-11T00:31:50;18.80;99.90
7427;DHT22;3755;59.316;18.092;2022-08-11T00:34:22;18.80;99.90
7427;DHT22;3755;59.316;18.092;2022-08-11T00:36:52;18.70;99.90
7427;DHT22;3755;59.316;18.092;2022-08-11T00:39:21;18.70;99.90
7427;DHT22;3755;59.316;18.092;2022-08-11T00:42:03;18.80;99.90
7427;DHT22;3755;59.316;18.092;2022-08-11T00:44:40;18.70;99.90
7427;DHT22;3755;59.316;18.092;2022-08-11T00:47:17;18.70;99.90
7427;DHT22;3755;59.316;18.092;2022-08-11T00:50:02;18.60;99.90
7427;DHT22;3755;59.316;18.092;2022-08-11T00:56:13;18.50;99.90
7427;DHT22;3755;59.316;18.092;2022-08-11T00:59:15;18.40;99.90
7427;DHT22;3755;59.316;18.092;2022-08-11T01:01:58;18.40;99.90
7427;DHT22;3755;59.316;18.092;2022-08-11T01:05:06;18.40;99.90
7427;DHT22;3755;59.316;18.092;2022-08-11T01:08:06;18.30;99.90
7427;DHT22;3755;59.316;18.092;2022-08-11T01:11:04;18.20;99.90
7427;DHT22;3755;59.316;18.092;2022-08-11T01:14:07;18.10;99.90
7427;DHT22;3755;59.316;18.092;2022-08-11T01:17:11;18.00;99.90
7427;DHT22;3755;59.316;18.092;2022-08-11T01:20:10;17.90;99.90
7427;DHT22;3755;59.316;18.092;2022-08-11T01:23:03;18.00;99.90
7427;DHT22;3755;59.316;18.092;2022-08-11T01:25:54;17.90;99.90
7427;DHT22;3755;59.316;18.092;2022-08-11T01:31:57;18.00;99.90
7427;DHT22;3755;59.316;18.092;2022-08-11T01:35:20;17.90;99.90
7427;DHT22;3755;59.316;18.092;2022-08-11T01:38:34;17.90;99.90
7427;DHT22;3755;59.316;18.092;2022-08-11T01:41:28;17.90;99.90
7427;DHT22;3755;59.316;18.092;2022-08-11T01:44:21;17.90;99.90
7427;DHT22;3755;59.316;18.092;2022-08-11T01:47:12;17.90;99.90
7427;DHT22;3755;59.316;18.092;2022-08-11T01:50:11;17.90;99.90
7427;DHT22;3755;59.316;18.092;2022-08-11T01:52:52;17.90;99.90
7427;DHT22;3755;59.316;18.092;2022-08-11T01:55:33;17.90;99.90
7427;DHT22;3755;59.316;18.092;2022-08-11T01:58:08;17.80;99.90
7427;DHT22;3755;59.316;18.092;2022-08-11T02:00:49;17.80;99.90
7427;DHT22;3755;59.316;18.092;2022-08-11T02:03:23;17.70;99.90
7427;DHT22;3755;59.316;18.092;2022-08-11T02:06:01;17.70;99.90
7427;DHT22;3755;59.316;18.092;2022-08-11T02:08:57;17.60;99.90
7427;DHT22;3755;59.316;18.092;2022-08-11T02:11:26;17.50;99.90
7427;DHT22;3755;59.316;18.092;2022-08-11T02:13:59;17.40;99.90
7427;DHT22;3755;59.316;18.092;2022-08-11T02:16:36;17.40;99.90
7427;DHT22;3755;59.316;18.092;2022-08-11T02:19:17;17.30;99.90
7427;DHT22;3755;59.316;18.092;2022-08-11T02:22:10;17.30;99.90
7427;DHT22;3755;59.316;18.092;2022-08-11T02:25:01;17.30;99.90
7427;DHT22;3755;59.316;18.092;2022-08-11T02:27:46;17.30;99.90
7427;DHT22;3755;59.316;18.092;2022-08-11T02:30:17;17.30;99.90
7427;DHT22;3755;59.316;18.092;2022-08-11T02:32:50;17.30;99.90
7427;DHT22;3755;59.316;18.092;2022-08-11T02:35:46;17.20;99.90
7427;DHT22;3755;59.316;18.092;2022-08-11T02:38:23;17.20;99.90
7427;DHT22;3755;59.316;18.092;2022-08-11T02:40:59;17.30;99.90
7427;DHT22;3755;59.316;18.092;2022-08-11T02:43:39;17.30;99.90
7427;DHT22;3755;59.316;18.092;2022-08-11T02:46:23;17.30;99.90
7427;DHT22;3755;59.316;18.092;2022-08-11T02:49:08;17.30;99.90
7427;DHT22;3755;59.316;18.092;2022-08-11T02:52:03;17.20;99.90
7427;DHT22;3755;59.316;18.092;2022-08-11T02:54:43;17.20;99.90
7427;DHT22;3755;59.316;18.092;2022-08-11T02:57:21;17.20;99.90
7427;DHT22;3755;59.316;18.092;2022-08-11T02:59:54;17.20;99.90
7427;DHT22;3755;59.316;18.092;2022-08-11T03:02:42;17.10;99.90
7427;DHT22;3755;59.316;18.092;2022-08-11T03:05:21;17.10;99.90
7427;DHT22;3755;59.316;18.092;2022-08-11T03:08:06;17.10;99.90
7427;DHT22;3755;59.316;18.092;2022-08-11T03:10:47;17.10;99.90
7427;DHT22;3755;59.316;18.092;2022-08-11T03:13:41;17.10;99.90
7427;DHT22;3755;59.316;18.092;2022-08-11T03:16:33;17.10;99.90
7427;DHT22;3755;59.316;18.092;2022-08-11T03:19:18;17.10;99.90
7427;DHT22;3755;59.316;18.092;2022-08-11T03:21:53;17.10;99.90
7427;DHT22;3755;59.316;18.092;2022-08-11T03:24:26;17.00;99.90
7427;DHT22;3755;59.316;18.092;2022-08-11T03:27:02;17.00;99.90
7427;DHT22;3755;59.316;18.092;2022-08-11T03:29:43;17.00;99.90
7427;DHT22;3755;59.316;18.092;2022-08-11T03:32:23;17.00;99.90
7427;DHT22;3755;59.316;18.092;2022-08-11T03:34:54;17.00;99.90
7427;DHT22;3755;59.316;18.092;2022-08-11T03:37:34;17.00;99.90
7427;DHT22;3755;59.316;18.092;2022-08-11T03:43:45;17.10;99.90
7427;DHT22;3755;59.316;18.092;2022-08-11T03:46:18;17.20;99.90
7427;DHT22;3755;59.316;18.092;2022-08-11T03:48:55;17.20;99.90
7427;DHT22;3755;59.316;18.092;2022-08-11T03:51:30;17.20;99.90
7427;DHT22;3755;59.316;18.092;2022-08-11T03:54:13;17.20;99.90
7427;DHT22;3755;59.316;18.092;2022-08-11T03:57:07;17.20;99.90
7427;DHT22;3755;59.316;18.092;2022-08-11T04:03:07;17.20;99.90
7427;DHT22;3755;59.316;18.092;2022-08-11T04:15:03;17.40;99.90
7427;DHT22;3755;59.316;18.092;2022-08-11T04:18:14;17.60;99.90
7427;DHT22;3755;59.316;18.092;2022-08-11T04:21:09;18.10;99.90
7427;DHT22;3755;59.316;18.092;2022-08-11T04:24:08;18.40;99.90
7427;DHT22;3755;59.316;18.092;2022-08-11T04:27:11;18.90;99.90
7427;DHT22;3755;59.316;18.092;2022-08-11T04:29:56;19.10;99.90
7427;DHT22;3755;59.316;18.092;2022-08-11T04:32:55;19.00;99.90
7427;DHT22;3755;59.316;18.092;2022-08-11T04:35:41;18.90;99.90
7427;DHT22;3755;59.316;18.092;2022-08-11T04:47:52;18.00;99.90
7427;DHT22;3755;59.316;18.092;2022-08-11T04:50:53;17.90;99.90
7427;DHT22;3755;59.316;18.092;2022-08-11T04:53:49;18.30;99.90
7427;DHT22;3755;59.316;18.092;2022-08-11T04:56:50;19.10;99.90
7427;DHT22;3755;59.316;18.092;2022-08-11T05:00:03;19.90;99.90
7427;DHT22;3755;59.316;18.092;2022-08-11T05:03:42;20.10;99.90
7427;DHT22;3755;59.316;18.092;2022-08-11T05:06:56;20.60;99.90
7427;DHT22;3755;59.316;18.092;2022-08-11T05:09:47;20.50;99.90
7427;DHT22;3755;59.316;18.092;2022-08-11T05:12:28;20.50;99.90
7427;DHT22;3755;59.316;18.092;2022-08-11T05:14:58;20.30;99.90
7427;DHT22;3755;59.316;18.092;2022-08-11T05:17:51;19.60;99.90
7427;DHT22;3755;59.316;18.092;2022-08-11T05:20:46;19.20;99.90
7427;DHT22;3755;59.316;18.092;2022-08-11T05:23:35;19.00;99.90
7427;DHT22;3755;59.316;18.092;2022-08-11T05:26:22;18.80;99.90
7427;DHT22;3755;59.316;18.092;2022-08-11T05:29:26;18.80;99.90
7427;DHT22;3755;59.316;18.092;2022-08-11T05:32:15;18.90;99.90
7427;DHT22;3755;59.316;18.092;2022-08-11T05:35:03;19.00;99.90
7427;DHT22;3755;59.316;18.092;2022-08-11T05:37:40;18.90;99.90
7427;DHT22;3755;59.316;18.092;2022-08-11T05:40:23;19.10;99.90
7427;DHT22;3755;59.316;18.092;2022-08-11T05:43:12;19.10;99.90
7427;DHT22;3755;59.316;18.092;2022-08-11T05:46:00;19.30;99.90
7427;DHT22;3755;59.316;18.092;2022-08-11T05:48:46;19.20;99.90
7427;DHT22;3755;59.316;18.092;2022-08-11T05:51:36;19.20;99.90
7427;DHT22;3755;59.316;18.092;2022-08-11T05:54:22;19.30;99.90
7427;DHT22;3755;59.316;18.092;2022-08-11T05:57:09;19.60;99.90
7427;DHT22;3755;59.316;18.092;2022-08-11T05:59:44;19.50;99.90
7427;DHT22;3755;59.316;18.092;2022-08-11T06:02:12;19.60;99.90
7427;DHT22;3755;59.316;18.092;2022-08-11T06:04:40;19.60;99.90
7427;DHT22;3755;59.316;18.092;2022-08-11T06:07:11;19.50;99.90
7427;DHT22;3755;59.316;18.092;2022-08-11T06:09:47;19.50;99.90
7427;DHT22;3755;59.316;18.092;2022-08-11T06:12:19;19.40;99.90
7427;DHT22;3755;59.316;18.092;2022-08-11T06:14:53;19.40;99.90
7427;DHT22;3755;59.316;18.092;2022-08-11T06:17:22;19.50;99.90
7427;DHT22;3755;59.316;18.092;2022-08-11T06:19:50;19.50;99.90
7427;DHT22;3755;59.316;18.092;2022-08-11T06:22:22;19.60;99.90
7427;DHT22;3755;59.316;18.092;2022-08-11T06:24:56;19.70;99.90
7427;DHT22;3755;59.316;18.092;2022-08-11T06:27:25;19.70;99.90
7427;DHT22;3755;59.316;18.092;2022-08-11T06:29:53;19.80;99.90
7427;DHT22;3755;59.316;18.092;2022-08-11T06:32:23;19.80;99.90
7427;DHT22;3755;59.316;18.092;2022-08-11T06:35:10;19.90;99.90
7427;DHT22;3755;59.316;18.092;2022-08-11T06:37:48;20.00;99.90
7427;DHT22;3755;59.316;18.092;2022-08-11T06:40:29;20.20;99.90
7427;DHT22;3755;59.316;18.092;2022-08-11T06:43:03;20.30;99.90
7427;DHT22;3755;59.316;18.092;2022-08-11T06:45:38;20.30;99.90
7427;DHT22;3755;59.316;18.092;2022-08-11T06:48:15;20.30;99.90
7427;DHT22;3755;59.316;18.092;2022-08-11T06:50:48;20.20;99.90
7427;DHT22;3755;59.316;18.092;2022-08-11T06:53:33;20.20;99.90
7427;DHT22;3755;59.316;18.092;2022-08-11T06:56:01;20.20;99.90
7427;DHT22;3755;59.316;18.092;2022-08-11T06:58:56;20.30;99.90
7427;DHT22;3755;59.316;18.092;2022-08-11T07:01:47;20.40;99.90
7427;DHT22;3755;59.316;18.092;2022-08-11T07:04:25;20.60;99.90
7427;DHT22;3755;59.316;18.092;2022-08-11T07:07:05;20.70;99.90
7427;DHT22;3755;59.316;18.092;2022-08-11T07:10:19;20.80;99.90
7427;DHT22;3755;59.316;18.092;2022-08-11T07:13:07;20.80;99.90
7427;DHT22;3755;59.316;18.092;2022-08-11T07:15:56;20.80;99.90
7427;DHT22;3755;59.316;18.092;2022-08-11T07:18:25;20.90;99.90
7427;DHT22;3755;59.316;18.092;2022-08-11T07:21:14;20.90;99.90
7427;DHT22;3755;59.316;18.092;2022-08-11T07:24:01;21.10;99.90
7427;DHT22;3755;59.316;18.092;2022-08-11T07:26:52;21.20;99.90
7427;DHT22;3755;59.316;18.092;2022-08-11T07:29:42;21.20;99.90
7427;DHT22;3755;59.316;18.092;2022-08-11T07:35:48;21.40;99.90
7427;DHT22;3755;59.316;18.092;2022-08-11T07:38:21;21.40;99.90
7427;DHT22;3755;59.316;18.092;2022-08-11T07:41:08;21.40;99.90
7427;DHT22;3755;59.316;18.092;2022-08-11T07:43:36;21.50;99.90
7427;DHT22;3755;59.316;18.092;2022-08-11T07:46:05;21.60;99.90
7427;DHT22;3755;59.316;18.092;2022-08-11T07:48:52;21.70;99.90
7427;DHT22;3755;59.316;18.092;2022-08-11T07:51:40;21.80;99.90
7427;DHT22;3755;59.316;18.092;2022-08-11T07:54:27;21.70;99.90
7427;DHT22;3755;59.316;18.092;2022-08-11T07:56:56;21.70;99.90
7427;DHT22;3755;59.316;18.092;2022-08-11T07:59:25;21.80;99.90
7427;DHT22;3755;59.316;18.092;2022-08-11T08:02:11;21.90;99.90
7427;DHT22;3755;59.316;18.092;2022-08-11T08:05:01;22.00;99.90
7427;DHT22;3755;59.316;18.092;2022-08-11T08:08:08;22.00;99.90
7427;DHT22;3755;59.316;18.092;2022-08-11T08:10:55;22.20;99.90
7427;DHT22;3755;59.316;18.092;2022-08-11T08:13:41;22.30;99.90
7427;DHT22;3755;59.316;18.092;2022-08-11T08:16:26;22.50;99.90
7427;DHT22;3755;59.316;18.092;2022-08-11T08:19:16;22.50;99.90
7427;DHT22;3755;59.316;18.092;2022-08-11T08:21:47;22.60;99.90
7427;DHT22;3755;59.316;18.092;2022-08-11T08:24:19;22.60;99.90
7427;DHT22;3755;59.316;18.092;2022-08-11T08:26:59;22.70;99.90
7427;DHT22;3755;59.316;18.092;2022-08-11T08:29:31;22.80;99.90
7427;DHT22;3755;59.316;18.092;2022-08-11T08:32:18;22.70;99.90
7427;DHT22;3755;59.316;18.092;2022-08-11T08:34:50;22.80;99.90
7427;DHT22;3755;59.316;18.092;2022-08-11T08:37:23;22.80;99.90
7427;DHT22;3755;59.316;18.092;2022-08-11T08:39:52;22.90;99.90
7427;DHT22;3755;59.316;18.092;2022-08-11T08:42:24;22.90;99.90
7427;DHT22;3755;59.316;18.092;2022-08-11T08:44:57;22.90;99.90
7427;DHT22;3755;59.316;18.092;2022-08-11T08:47:28;22.80;99.90
7427;DHT22;3755;59.316;18.092;2022-08-11T08:49:59;22.90;99.90
7427;DHT22;3755;59.316;18.092;2022-08-11T08:52:36;22.80;99.90
7427;DHT22;3755;59.316;18.092;2022-08-11T08:55:11;22.80;99.90
7427;DHT22;3755;59.316;18.092;2022-08-11T08:57:43;23.10;99.90
7427;DHT22;3755;59.316;18.092;2022-08-11T09:00:14;23.10;99.90
7427;DHT22;3755;59.316;18.092;2022-08-11T09:02:42;23.30;99.90
7427;DHT22;3755;59.316;18.092;2022-08-11T09:05:10;23.40;99.90
7427;DHT22;3755;59.316;18.092;2022-08-11T09:07:40;23.40;99.90
7427;DHT22;3755;59.316;18.092;2022-08-11T09:10:08;23.40;99.90
7427;DHT22;3755;59.316;18.092;2022-08-11T09:12:40;23.60;99.90
7427;DHT22;3755;59.316;18.092;2022-08-11T09:15:10;23.60;99.90
7427;DHT22;3755;59.316;18.092;2022-08-11T09:17:40;23.50;99.90
7427;DHT22;3755;59.316;18.092;2022-08-11T09:20:11;23.60;99.90
7427;DHT22;3755;59.316;18.092;2022-08-11T09:22:44;23.60;99.90
7427;DHT22;3755;59.316;18.092;2022-08-11T09:25:38;23.60;99.70
7427;DHT22;3755;59.316;18.092;2022-08-11T09:28:27;23.80;99.90
7427;DHT22;3755;59.316;18.092;2022-08-11T09:30:59;23.80;99.20
7427;DHT22;3755;59.316;18.092;2022-08-11T09:33:34;23.90;99.70
7427;DHT22;3755;59.316;18.092;2022-08-11T09:36:03;23.80;99.00
7427;DHT22;3755;59.316;18.092;2022-08-11T09:38:49;24.00;99.30
7427;DHT22;3755;59.316;18.092;2022-08-11T09:41:35;24.00;99.40
7427;DHT22;3755;59.316;18.092;2022-08-11T09:44:05;23.90;99.30
7427;DHT22;3755;59.316;18.092;2022-08-11T09:46:51;24.10;99.20
7427;DHT22;3755;59.316;18.092;2022-08-11T09:49:20;24.10;99.00
7427;DHT22;3755;59.316;18.092;2022-08-11T09:51:50;24.00;99.30
7427;DHT22;3755;59.316;18.092;2022-08-11T09:54:24;24.20;99.10
7427;DHT22;3755;59.316;18.092;2022-08-11T09:56:53;24.40;98.70
7427;DHT22;3755;59.316;18.092;2022-08-11T09:59:41;24.40;98.20
7427;DHT22;3755;59.316;18.092;2022-08-11T10:02:09;24.30;98.10
7427;DHT22;3755;59.316;18.092;2022-08-11T10:04:40;24.40;97.60
7427;DHT22;3755;59.316;18.092;2022-08-11T10:07:10;24.40;97.60
7427;DHT22;3755;59.316;18.092;2022-08-11T10:09:48;24.30;97.70
7427;DHT22;3755;59.316;18.092;2022-08-11T10:12:25;24.30;97.50
7427;DHT22;3755;59.316;18.092;2022-08-11T10:25:40;24.50;97.20
7427;DHT22;3755;59.316;18.092;2022-08-11T10:28:26;24.40;96.50
7427;DHT22;3755;59.316;18.092;2022-08-11T10:30:55;24.50;95.40
7427;DHT22;3755;59.316;18.092;2022-08-11T10:33:43;24.50;95.30
7427;DHT22;3755;59.316;18.092;2022-08-11T10:36:28;24.50;95.40
7427;DHT22;3755;59.316;18.092;2022-08-11T10:38:59;24.60;95.60
7427;DHT22;3755;59.316;18.092;2022-08-11T10:41:29;24.50;95.60
7427;DHT22;3755;59.316;18.092;2022-08-11T10:44:14;24.40;95.80
7427;DHT22;3755;59.316;18.092;2022-08-11T10:46:42;24.60;96.10
7427;DHT22;3755;59.316;18.092;2022-08-11T10:49:27;24.60;96.10
7427;DHT22;3755;59.316;18.092;2022-08-11T10:51:58;24.80;96.30
7427;DHT22;3755;59.316;18.092;2022-08-11T10:54:45;24.70;96.30
7427;DHT22;3755;59.316;18.092;2022-08-11T10:57:31;24.80;96.10
7427;DHT22;3755;59.316;18.092;2022-08-11T11:00:17;24.90;95.70
7427;DHT22;3755;59.316;18.092;2022-08-11T11:02:45;25.10;95.40
7427;DHT22;3755;59.316;18.092;2022-08-11T11:05:19;25.00;95.20
7427;DHT22;3755;59.316;18.092;2022-08-11T11:07:57;25.10;94.90
7427;DHT22;3755;59.316;18.092;2022-08-11T11:10:29;25.30;94.30
7427;DHT22;3755;59.316;18.092;2022-08-11T11:13:01;25.30;94.10
7427;DHT22;3755;59.316;18.092;2022-08-11T11:15:48;25.20;94.00
7427;DHT22;3755;59.316;18.092;2022-08-11T11:18:35;25.40;93.80
7427;DHT22;3755;59.316;18.092;2022-08-11T11:21:06;25.60;93.70
7427;DHT22;3755;59.316;18.092;2022-08-11T11:23:40;25.50;93.90
7427;DHT22;3755;59.316;18.092;2022-08-11T11:26:29;25.50;93.20
7427;DHT22;3755;59.316;18.092;2022-08-11T11:29:33;25.60;92.80
7427;DHT22;3755;59.316;18.092;2022-08-11T11:32:19;25.80;92.80
7427;DHT22;3755;59.316;18.092;2022-08-11T11:37:54;25.90;91.90
7427;DHT22;3755;59.316;18.092;2022-08-11T11:40:28;25.80;92.50
7427;DHT22;3755;59.316;18.092;2022-08-11T11:42:56;26.10;92.30
7427;DHT22;3755;59.316;18.092;2022-08-11T11:45:26;25.90;92.10
7427;DHT22;3755;59.316;18.092;2022-08-11T11:48:02;25.80;91.80
7427;DHT22;3755;59.316;18.092;2022-08-11T11:50:31;25.90;91.00
7427;DHT22;3755;59.316;18.092;2022-08-11T11:53:03;25.80;91.30
7427;DHT22;3755;59.316;18.092;2022-08-11T11:55:31;25.80;91.70
7427;DHT22;3755;59.316;18.092;2022-08-11T11:58:00;25.80;91.80
7427;DHT22;3755;59.316;18.092;2022-08-11T12:00:46;26.00;91.00
7427;DHT22;3755;59.316;18.092;2022-08-11T12:03:33;26.00;90.80
7427;DHT22;3755;59.316;18.092;2022-08-11T12:06:03;26.10;91.10
7427;DHT22;3755;59.316;18.092;2022-08-11T12:08:31;26.20;91.00
7427;DHT22;3755;59.316;18.092;2022-08-11T12:11:01;26.20;90.30
7427;DHT22;3755;59.316;18.092;2022-08-11T12:13:49;26.20;89.00
7427;DHT22;3755;59.316;18.092;2022-08-11T12:16:21;26.00;89.00
7427;DHT22;3755;59.316;18.092;2022-08-11T12:19:08;26.00;90.10
7427;DHT22;3755;59.316;18.092;2022-08-11T12:21:37;26.00;90.20
7427;DHT22;3755;59.316;18.092;2022-08-11T12:24:24;26.20;89.70
7427;DHT22;3755;59.316;18.092;2022-08-11T12:27:09;26.40;89.10
7427;DHT22;3755;59.316;18.092;2022-08-11T12:29:50;26.30;89.50
7427;DHT22;3755;59.316;18.092;2022-08-11T12:32:21;26.30;89.60
7427;DHT22;3755;59.316;18.092;2022-08-11T12:34:49;26.30;89.60
7427;DHT22;3755;59.316;18.092;2022-08-11T12:37:21;26.40;88.80
7427;DHT22;3755;59.316;18.092;2022-08-11T12:39:59;26.40;88.40
7427;DHT22;3755;59.316;18.092;2022-08-11T12:42:44;26.40;87.60
7427;DHT22;3755;59.316;18.092;2022-08-11T12:45:30;26.40;88.20
7427;DHT22;3755;59.316;18.092;2022-08-11T12:48:06;26.50;88.50
7427;DHT22;3755;59.316;18.092;2022-08-11T12:50:55;26.50;87.30
7427;DHT22;3755;59.316;18.092;2022-08-11T12:53:45;26.40;87.70
7427;DHT22;3755;59.316;18.092;2022-08-11T12:56:18;26.40;88.00
7427;DHT22;3755;59.316;18.092;2022-08-11T12:59:09;26.50;88.20
7427;DHT22;3755;59.316;18.092;2022-08-11T13:01:56;26.60;86.80
7427;DHT22;3755;59.316;18.092;2022-08-11T13:04:44;26.60;84.80
7427;DHT22;3755;59.316;18.092;2022-08-11T13:07:18;26.70;84.70
7427;DHT22;3755;59.316;18.092;2022-08-11T13:09:48;26.70;83.90
7427;DHT22;3755;59.316;18.092;2022-08-11T13:12:16;26.70;84.70
7427;DHT22;3755;59.316;18.092;2022-08-11T13:15:03;26.90;83.70
7427;DHT22;3755;59.316;18.092;2022-08-11T13:17:32;26.80;83.00
7427;DHT22;3755;59.316;18.092;2022-08-11T13:20:02;27.00;81.40
7427;DHT22;3755;59.316;18.092;2022-08-11T13:22:34;27.10;81.60
7427;DHT22;3755;59.316;18.092;2022-08-11T13:25:05;27.20;82.20
7427;DHT22;3755;59.316;18.092;2022-08-11T13:27:36;27.30;81.40
7427;DHT22;3755;59.316;18.092;2022-08-11T13:30:06;27.10;82.10
7427;DHT22;3755;59.316;18.092;2022-08-11T13:32:51;26.90;82.50
7427;DHT22;3755;59.316;18.092;2022-08-11T13:35:21;26.90;79.80
7427;DHT22;3755;59.316;18.092;2022-08-11T13:37:50;26.90;79.40
7427;DHT22;3755;59.316;18.092;2022-08-11T13:40:19;26.90;79.10
7427;DHT22;3755;59.316;18.092;2022-08-11T13:42:50;26.70;79.70
7427;DHT22;3755;59.316;18.092;2022-08-11T13:45:19;26.80;79.30
7427;DHT22;3755;59.316;18.092;2022-08-11T13:47:51;27.00;78.80
7427;DHT22;3755;59.316;18.092;2022-08-11T13:50:20;26.90;78.90
7427;DHT22;3755;59.316;18.092;2022-08-11T13:53:10;27.00;79.20
7427;DHT22;3755;59.316;18.092;2022-08-11T13:55:38;26.90;78.60
7427;DHT22;3755;59.316;18.092;2022-08-11T13:58:09;26.80;77.30
7427;DHT22;3755;59.316;18.092;2022-08-11T14:00:37;26.90;77.40
7427;DHT22;3755;59.316;18.092;2022-08-11T14:03:08;26.70;77.60
7427;DHT22;3755;59.316;18.092;2022-08-11T14:05:41;26.90;78.50
7427;DHT22;3755;59.316;18.092;2022-08-11T14:08:17;26.80;78.80
7427;DHT22;3755;59.316;18.092;2022-08-11T14:10:48;26.80;79.20
7427;DHT22;3755;59.316;18.092;2022-08-11T14:13:39;26.90;79.50
7427;DHT22;3755;59.316;18.092;2022-08-11T14:16:11;27.10;79.60
7427;DHT22;3755;59.316;18.092;2022-08-11T14:18:45;27.30;79.70
7427;DHT22;3755;59.316;18.092;2022-08-11T14:21:17;27.30;79.80
7427;DHT22;3755;59.316;18.092;2022-08-11T14:24:07;27.20;79.80
7427;DHT22;3755;59.316;18.092;2022-08-11T14:26:36;27.10;80.00
7427;DHT22;3755;59.316;18.092;2022-08-11T14:29:10;27.10;80.20
7427;DHT22;3755;59.316;18.092;2022-08-11T14:31:43;27.30;80.30
7427;DHT22;3755;59.316;18.092;2022-08-11T14:34:11;27.30;79.80
7427;DHT22;3755;59.316;18.092;2022-08-11T14:36:43;27.20;80.10
7427;DHT22;3755;59.316;18.092;2022-08-11T14:39:13;27.30;80.30
7427;DHT22;3755;59.316;18.092;2022-08-11T14:41:43;27.30;80.00
7427;DHT22;3755;59.316;18.092;2022-08-11T14:44:30;27.40;79.60
7427;DHT22;3755;59.316;18.092;2022-08-11T14:47:17;27.30;79.90
7427;DHT22;3755;59.316;18.092;2022-08-11T14:49:45;27.20;79.90
7427;DHT22;3755;59.316;18.092;2022-08-11T14:52:15;27.10;80.10
7427;DHT22;3755;59.316;18.092;2022-08-11T14:54:45;27.00;80.40
7427;DHT22;3755;59.316;18.092;2022-08-11T14:57:34;27.10;80.30
7427;DHT22;3755;59.316;18.092;2022-08-11T15:00:04;27.30;80.30
7427;DHT22;3755;59.316;18.092;2022-08-11T15:02:33;27.30;79.60
7427;DHT22;3755;59.316;18.092;2022-08-11T15:05:19;27.30;79.60
7427;DHT22;3755;59.316;18.092;2022-08-11T15:07:49;27.40;79.80
7427;DHT22;3755;59.316;18.092;2022-08-11T15:10:17;27.40;78.90
7427;DHT22;3755;59.316;18.092;2022-08-11T15:12:45;27.40;78.90
7427;DHT22;3755;59.316;18.092;2022-08-11T15:15:18;27.50;79.10
7427;DHT22;3755;59.316;18.092;2022-08-11T15:18:05;27.50;77.30
7427;DHT22;3755;59.316;18.092;2022-08-11T15:20:33;27.30;76.20
7427;DHT22;3755;59.316;18.092;2022-08-11T15:23:19;27.20;75.30
7427;DHT22;3755;59.316;18.092;2022-08-11T15:26:07;27.10;75.20
7427;DHT22;3755;59.316;18.092;2022-08-11T15:28:41;27.20;75.10
7427;DHT22;3755;59.316;18.092;2022-08-11T15:31:28;27.30;74.20
7427;DHT22;3755;59.316;18.092;2022-08-11T15:34:15;27.20;74.50
7427;DHT22;3755;59.316;18.092;2022-08-11T15:37:05;27.30;73.90
7427;DHT22;3755;59.316;18.092;2022-08-11T15:40:02;27.30;73.90
7427;DHT22;3755;59.316;18.092;2022-08-11T15:42:52;27.30;73.50
7427;DHT22;3755;59.316;18.092;2022-08-11T15:45:40;27.30;73.20
7427;DHT22;3755;59.316;18.092;2022-08-11T15:48:29;27.10;72.30
7427;DHT22;3755;59.316;18.092;2022-08-11T15:51:07;27.00;72.20
7427;DHT22;3755;59.316;18.092;2022-08-11T15:53:40;26.90;72.70
7427;DHT22;3755;59.316;18.092;2022-08-11T15:56:12;26.90;73.20
7427;DHT22;3755;59.316;18.092;2022-08-11T15:58:42;26.80;73.40
7427;DHT22;3755;59.316;18.092;2022-08-11T16:01:29;26.70;73.70
7427;DHT22;3755;59.316;18.092;2022-08-11T16:04:16;26.70;73.40
7427;DHT22;3755;59.316;18.092;2022-08-11T16:06:52;26.60;73.00
7427;DHT22;3755;59.316;18.092;2022-08-11T16:09:25;26.50;73.00
7427;DHT22;3755;59.316;18.092;2022-08-11T16:11:58;26.50;73.20
7427;DHT22;3755;59.316;18.092;2022-08-11T16:14:27;26.50;73.40
7427;DHT22;3755;59.316;18.092;2022-08-11T16:17:13;26.50;74.00
7427;DHT22;3755;59.316;18.092;2022-08-11T16:19:43;26.60;74.50
7427;DHT22;3755;59.316;18.092;2022-08-11T16:22:14;26.60;74.80
7427;DHT22;3755;59.316;18.092;2022-08-11T16:24:48;26.70;75.20
7427;DHT22;3755;59.316;18.092;2022-08-11T16:27:19;27.20;74.90
7427;DHT22;3755;59.316;18.092;2022-08-11T16:29:49;28.00;73.90
7427;DHT22;3755;59.316;18.092;2022-08-11T16:32:18;28.80;72.10
7427;DHT22;3755;59.316;18.092;2022-08-11T16:34:51;29.30;71.10
7427;DHT22;3755;59.316;18.092;2022-08-11T16:37:38;29.50;70.10
7427;DHT22;3755;59.316;18.092;2022-08-11T16:40:25;29.40;69.80
7427;DHT22;3755;59.316;18.092;2022-08-11T16:42:55;29.60;69.90
7427;DHT22;3755;59.316;18.092;2022-08-11T16:45:41;30.00;69.50
7427;DHT22;3755;59.316;18.092;2022-08-11T16:48:48;30.10;68.80
7427;DHT22;3755;59.316;18.092;2022-08-11T16:51:19;30.30;68.70
7427;DHT22;3755;59.316;18.092;2022-08-11T16:53:48;30.60;68.40
7427;DHT22;3755;59.316;18.092;2022-08-11T16:56:19;30.50;67.90
7427;DHT22;3755;59.316;18.092;2022-08-11T16:58:52;30.50;67.60
7427;DHT22;3755;59.316;18.092;2022-08-11T17:01:38;30.30;67.50
7427;DHT22;3755;59.316;18.092;2022-08-11T17:04:09;30.60;67.60
7427;DHT22;3755;59.316;18.092;2022-08-11T17:06:58;31.10;67.10
7427;DHT22;3755;59.316;18.092;2022-08-11T17:09:57;31.10;66.80
7427;DHT22;3755;59.316;18.092;2022-08-11T17:12:48;31.10;67.30
7427;DHT22;3755;59.316;18.092;2022-08-11T17:15:37;31.10;66.70
7427;DHT22;3755;59.316;18.092;2022-08-11T17:18:24;31.00;66.40
7427;DHT22;3755;59.316;18.092;2022-08-11T17:21:17;30.70;66.50
7427;DHT22;3755;59.316;18.092;2022-08-11T17:23:49;31.00;66.50
7427;DHT22;3755;59.316;18.092;2022-08-11T17:26:19;30.70;66.30
7427;DHT22;3755;59.316;18.092;2022-08-11T17:28:49;31.00;65.70
7427;DHT22;3755;59.316;18.092;2022-08-11T17:31:19;31.10;65.30
7427;DHT22;3755;59.316;18.092;2022-08-11T17:34:06;31.30;65.30
7427;DHT22;3755;59.316;18.092;2022-08-11T17:37:02;31.00;65.00
7427;DHT22;3755;59.316;18.092;2022-08-11T17:39:30;30.30;63.60
7427;DHT22;3755;59.316;18.092;2022-08-11T17:41:59;30.00;64.00
7427;DHT22;3755;59.316;18.092;2022-08-11T17:44:44;29.60;64.50
7427;DHT22;3755;59.316;18.092;2022-08-11T17:47:31;29.40;64.80
7427;DHT22;3755;59.316;18.092;2022-08-11T17:50:17;28.70;65.40
7427;DHT22;3755;59.316;18.092;2022-08-11T17:52:45;27.80;66.50
7427;DHT22;3755;59.316;18.092;2022-08-11T17:55:31;27.00;68.10